sensor_id;sensor_type;location;lat;lon;timestamp;temperature;humidity
19552;DHT22;9921;47.186;9.778;2023-12-20T00:01:03;3.20;99.90
19552;DHT22;9921;47.186;9.778;2023-12-20T00:03:30;3.10;99.90
19552;DHT22;9921;47.186;9.778;2023-12-20T00:05:56;3.10;99.90
19552;DHT22;9921;47.186;9.778;2023-12-20T00:08:23;3.10;99.90
19552;DHT22;9921;47.186;9.778;2023-12-20T00:10:50;3.10;99.90
19552;DHT22;9921;47.186;9.778;2023-12-20T00:13:17;3.20;99.90
19552;DHT22;9921;47.186;9.778;2023-12-20T00:15:45;3.10;99.90
19552;DHT22;9921;47.186;9.778;2023-12-20T00:18:12;3.10;99.90
19552;DHT22;9921;47.186;9.778;2023-12-20T00:20:39;3.10;99.90
19552;DHT22;9921;47.186;9.778;2023-12-20T00:23:05;3.10;99.90
19552;DHT22;9921;47.186;9.778;2023-12-20T00:25:33;3.10;99.90
19552;DHT22;9921;47.186;9.778;2023-12-20T00:28:00;3.10;99.90
19552;DHT22;9921;47.186;9.778;2023-12-20T00:30:27;3.10;99.90
19552;DHT22;9921;47.186;9.778;2023-12-20T00:32:56;3.10;99.90
19552;DHT22;9921;47.186;9.778;2023-12-20T00:35:23;3.20;99.90
19552;DHT22;9921;47.186;9.778;2023-12-20T00:37:50;3.30;99.90
19552;DHT22;9921;47.186;9.778;2023-12-20T00:40:16;3.50;99.90
19552;DHT22;9921;47.186;9.778;2023-12-20T00:42:43;3.70;99.90
19552;DHT22;9921;47.186;9.778;2023-12-20T00:45:12;3.90;99.90
19552;DHT22;9921;47.186;9.778;2023-12-20T00:47:39;4.00;99.90
19552;DHT22;9921;47.186;9.778;2023-12-20T00:50:08;4.00;99.90
19552;DHT22;9921;47.186;9.778;2023-12-20T00:52:35;4.00;99.90
19552;DHT22;9921;47.186;9.778;2023-12-20T00:55:03;3.90;99.90
19552;DHT22;9921;47.186;9.778;2023-12-20T00:57:30;3.90;99.90
19552;DHT22;9921;47.186;9.778;2023-12-20T00:59:57;3.90;99.90
19552;DHT22;9921;47.186;9.778;2023-12-20T01:02:24;3.90;99.90
19552;DHT22;9921;47.186;9.778;2023-12-20T01:04:50;3.90;99.90
19552;DHT22;9921;47.186;9.778;2023-12-20T01:07:19;3.90;99.90
19552;DHT22;9921;47.186;9.778;2023-12-20T01:09:45;3.90;99.90
19552;DHT22;9921;47.186;9.778;2023-12-20T01:12:12;3.80;99.90
19552;DHT22;9921;47.186;9.778;2023-12-20T01:14:39;3.80;99.90
19552;DHT22;9921;47.186;9.778;2023-12-20T01:17:06;3.70;99.90
19552;DHT22;9921;47.186;9.778;2023-12-20T01:19:33;3.70;99.90
19552;DHT22;9921;47.186;9.778;2023-12-20T01:21:59;3.70;99.90
19552;DHT22;9921;47.186;9.778;2023-12-20T01:24:28;3.60;99.90
19552;DHT22;9921;47.186;9.778;2023-12-20T01:26:54;3.70;99.90
19552;DHT22;9921;47.186;9.778;2023-12-20T01:29:21;3.70;99.90
19552;DHT22;9921;47.186;9.778;2023-12-20T01:31:48;3.70;99.90
19552;DHT22;9921;47.186;9.778;2023-12-20T01:34:15;3.70;99.90
19552;DHT22;9921;47.186;9.778;2023-12-20T01:36:43;3.70;99.90
19552;DHT22;9921;47.186;9.778;2023-12-20T01:39:10;3.70;99.90
19552;DHT22;9921;47.186;9.778;2023-12-20T01:41:38;3.80;99.90
19552;DHT22;9921;47.186;9.778;2023-12-20T01:44:05;3.80;99.90
19552;DHT22;9921;47.186;9.778;2023-12-20T01:46:32;3.80;99.90
19552;DHT22;9921;47.186;9.778;2023-12-20T01:48:59;3.80;99.90
19552;DHT22;9921;47.186;9.778;2023-12-20T01:51:26;3.90;99.90
19552;DHT22;9921;47.186;9.778;2023-12-20T01:53:54;3.90;99.90
19552;DHT22;9921;47.186;9.778;2023-12-20T01:56:22;4.00;99.90
19552;DHT22;9921;47.186;9.778;2023-12-20T01:58:50;4.10;99.90
19552;DHT22;9921;47.186;9.778;2023-12-20T02:01:17;4.10;99.90
19552;DHT22;9921;47.186;9.778;2023-12-20T02:03:45;4.10;99.90
19552;DHT22;9921;47.186;9.778;2023-12-20T02:06:12;4.20;99.90
19552;DHT22;9921;47.186;9.778;2023-12-20T02:08:39;4.20;99.90
19552;DHT22;9921;47.186;9.778;2023-12-20T02:11:06;4.20;99.90
19552;DHT22;9921;47.186;9.778;2023-12-20T02:13:33;4.30;99.90
19552;DHT22;9921;47.186;9.778;2023-12-20T02:16:01;4.40;99.90
19552;DHT22;9921;47.186;9.778;2023-12-20T02:18:28;4.40;99.90
19552;DHT22;9921;47.186;9.778;2023-12-20T02:20:55;4.40;99.90
19552;DHT22;9921;47.186;9.778;2023-12-20T02:23:23;4.50;99.90
19552;DHT22;9921;47.186;9.778;2023-12-20T02:25:51;4.40;99.90
19552;DHT22;9921;47.186;9.778;2023-12-20T02:28:18;4.50;99.90
19552;DHT22;9921;47.186;9.778;2023-12-20T02:30:47;4.60;99.90
19552;DHT22;9921;47.186;9.778;2023-12-20T02:33:15;4.60;99.90
19552;DHT22;9921;47.186;9.778;2023-12-20T02:35:42;4.60;99.90
19552;DHT22;9921;47.186;9.778;2023-12-20T02:38:09;4.60;99.90
19552;DHT22;9921;47.186;9.778;2023-12-20T02:40:37;4.70;99.90
19552;DHT22;9921;47.186;9.778;2023-12-20T02:43:04;4.70;99.90
19552;DHT22;9921;47.186;9.778;2023-12-20T02:45:31;4.70;99.90
19552;DHT22;9921;47.186;9.778;2023-12-20T02:47:58;4.80;99.90
19552;DHT22;9921;47.186;9.778;2023-12-20T02:50:25;4.80;99.90
19552;DHT22;9921;47.186;9.778;2023-12-20T02:52:51;4.90;99.90
19552;DHT22;9921;47.186;9.778;2023-12-20T02:55:18;4.90;99.90
19552;DHT22;9921;47.186;9.778;2023-12-20T02:57:46;4.80;99.90
19552;DHT22;9921;47.186;9.778;2023-12-20T03:00:14;4.80;99.90
19552;DHT22;9921;47.186;9.778;2023-12-20T03:02:40;4.80;99.90
19552;DHT22;9921;47.186;9.778;2023-12-20T03:05:08;4.80;99.90
19552;DHT22;9921;47.186;9.778;2023-12-20T03:07:36;4.80;99.90
19552;DHT22;9921;47.186;9.778;2023-12-20T03:10:04;4.80;99.90
19552;DHT22;9921;47.186;9.778;2023-12-20T03:12:31;4.70;99.90
19552;DHT22;9921;47.186;9.778;2023-12-20T03:14:59;4.60;99.90
19552;DHT22;9921;47.186;9.778;2023-12-20T03:17:26;4.60;99.90
19552;DHT22;9921;47.186;9.778;2023-12-20T03:19:53;4.50;99.90
19552;DHT22;9921;47.186;9.778;2023-12-20T03:22:20;4.40;99.90
19552;DHT22;9921;47.186;9.778;2023-12-20T03:24:47;4.30;99.90
19552;DHT22;9921;47.186;9.778;2023-12-20T03:27:14;4.40;99.90
19552;DHT22;9921;47.186;9.778;2023-12-20T03:29:41;4.30;99.90
19552;DHT22;9921;47.186;9.778;2023-12-20T03:32:09;4.30;99.90
19552;DHT22;9921;47.186;9.778;2023-12-20T03:34:36;4.20;99.90
19552;DHT22;9921;47.186;9.778;2023-12-20T03:37:01;4.20;99.90
19552;DHT22;9921;47.186;9.778;2023-12-20T03:39:28;4.20;99.90
19552;DHT22;9921;47.186;9.778;2023-12-20T03:41:55;4.10;99.90
19552;DHT22;9921;47.186;9.778;2023-12-20T03:44:22;4.10;99.90
19552;DHT22;9921;47.186;9.778;2023-12-20T03:46:49;4.10;99.90
19552;DHT22;9921;47.186;9.778;2023-12-20T03:49:17;4.10;99.90
19552;DHT22;9921;47.186;9.778;2023-12-20T03:51:44;4.10;99.90
19552;DHT22;9921;47.186;9.778;2023-12-20T03:54:10;4.10;99.90
19552;DHT22;9921;47.186;9.778;2023-12-20T03:56:37;4.10;99.90
19552;DHT22;9921;47.186;9.778;2023-12-20T03:59:04;4.20;99.90
19552;DHT22;9921;47.186;9.778;2023-12-20T04:01:31;4.20;99.90
19552;DHT22;9921;47.186;9.778;2023-12-20T04:03:58;4.20;99.90
19552;DHT22;9921;47.186;9.778;2023-12-20T04:06:26;4.30;99.90
19552;DHT22;9921;47.186;9.778;2023-12-20T04:08:53;4.30;99.90
19552;DHT22;9921;47.186;9.778;2023-12-20T04:11:20;4.40;99.90
19552;DHT22;9921;47.186;9.778;2023-12-20T04:13:47;4.40;99.90
19552;DHT22;9921;47.186;9.778;2023-12-20T04:16:14;4.30;99.90
19552;DHT22;9921;47.186;9.778;2023-12-20T04:18:40;4.40;99.90
19552;DHT22;9921;47.186;9.778;2023-12-20T04:21:07;4.50;99.90
19552;DHT22;9921;47.186;9.778;2023-12-20T04:23:36;4.40;99.90
19552;DHT22;9921;47.186;9.778;2023-12-20T04:26:03;4.40;99.90
19552;DHT22;9921;47.186;9.778;2023-12-20T04:28:30;4.40;99.90
19552;DHT22;9921;47.186;9.778;2023-12-20T04:30:57;4.40;99.90
19552;DHT22;9921;47.186;9.778;2023-12-20T04:33:24;4.40;99.90
19552;DHT22;9921;47.186;9.778;2023-12-20T04:35:50;4.40;99.90
19552;DHT22;9921;47.186;9.778;2023-12-20T04:38:17;4.40;99.90
19552;DHT22;9921;47.186;9.778;2023-12-20T04:40:46;4.40;99.90
19552;DHT22;9921;47.186;9.778;2023-12-20T04:43:13;4.40;99.90
19552;DHT22;9921;47.186;9.778;2023-12-20T04:45:40;4.40;99.90
19552;DHT22;9921;47.186;9.778;2023-12-20T04:48:07;4.30;99.90
19552;DHT22;9921;47.186;9.778;2023-12-20T04:50:34;4.40;99.90
19552;DHT22;9921;47.186;9.778;2023-12-20T04:53:01;4.30;99.90
19552;DHT22;9921;47.186;9.778;2023-12-20T04:55:27;4.30;99.90
19552;DHT22;9921;47.186;9.778;2023-12-20T04:57:56;4.20;99.90
19552;DHT22;9921;47.186;9.778;2023-12-20T05:00:23;4.20;99.90
19552;DHT22;9921;47.186;9.778;2023-12-20T05:02:49;4.20;99.90
19552;DHT22;9921;47.186;9.778;2023-12-20T05:05:16;4.20;99.90
19552;DHT22;9921;47.186;9.778;2023-12-20T05:07:43;4.20;99.90
19552;DHT22;9921;47.186;9.778;2023-12-20T05:10:10;4.30;99.90
19552;DHT22;9921;47.186;9.778;2023-12-20T05:12:37;4.40;99.90
19552;DHT22;9921;47.186;9.778;2023-12-20T05:15:07;4.50;99.90
19552;DHT22;9921;47.186;9.778;2023-12-20T05:17:34;4.50;99.90
19552;DHT22;9921;47.186;9.778;2023-12-20T05:20:00;4.50;99.90
19552;DHT22;9921;47.186;9.778;2023-12-20T05:22:27;4.60;99.90
19552;DHT22;9921;47.186;9.778;2023-12-20T05:24:54;4.60;99.90
19552;DHT22;9921;47.186;9.778;2023-12-20T05:27:21;4.60;99.90
19552;DHT22;9921;47.186;9.778;2023-12-20T05:29:48;4.60;99.90
19552;DHT22;9921;47.186;9.778;2023-12-20T05:32:17;4.50;99.90
19552;DHT22;9921;47.186;9.778;2023-12-20T05:34:43;4.60;99.90
19552;DHT22;9921;47.186;9.778;2023-12-20T05:37:10;4.60;99.90
19552;DHT22;9921;47.186;9.778;2023-12-20T05:39:37;4.60;99.90
19552;DHT22;9921;47.186;9.778;2023-12-20T05:42:05;4.60;99.90
19552;DHT22;9921;47.186;9.778;2023-12-20T05:44:31;4.60;99.90
19552;DHT22;9921;47.186;9.778;2023-12-20T05:46:58;4.60;99.90
19552;DHT22;9921;47.186;9.778;2023-12-20T05:49:26;4.60;99.90
19552;DHT22;9921;47.186;9.778;2023-12-20T05:51:53;4.60;99.90
19552;DHT22;9921;47.186;9.778;2023-12-20T05:54:20;4.60;99.90
19552;DHT22;9921;47.186;9.778;2023-12-20T05:56:47;4.60;99.90
19552;DHT22;9921;47.186;9.778;2023-12-20T05:59:14;4.60;99.90
19552;DHT22;9921;47.186;9.778;2023-12-20T06:01:41;4.70;99.90
19552;DHT22;9921;47.186;9.778;2023-12-20T06:04:08;4.60;99.90
19552;DHT22;9921;47.186;9.778;2023-12-20T06:06:40;4.50;99.90
19552;DHT22;9921;47.186;9.778;2023-12-20T06:09:07;4.50;99.90
19552;DHT22;9921;47.186;9.778;2023-12-20T06:11:34;4.40;99.90
19552;DHT22;9921;47.186;9.778;2023-12-20T06:14:01;4.40;99.90
19552;DHT22;9921;47.186;9.778;2023-12-20T06:16:28;4.30;99.90
19552;DHT22;9921;47.186;9.778;2023-12-20T06:18:54;4.30;99.90
19552;DHT22;9921;47.186;9.778;2023-12-20T06:21:21;4.30;99.90
19552;DHT22;9921;47.186;9.778;2023-12-20T06:23:49;4.40;99.90
19552;DHT22;9921;47.186;9.778;2023-12-20T06:26:16;4.40;99.90
19552;DHT22;9921;47.186;9.778;2023-12-20T06:28:43;4.50;99.90
19552;DHT22;9921;47.186;9.778;2023-12-20T06:31:10;4.60;99.90
19552;DHT22;9921;47.186;9.778;2023-12-20T06:33:37;4.60;99.90
19552;DHT22;9921;47.186;9.778;2023-12-20T06:36:06;4.50;99.90
19552;DHT22;9921;47.186;9.778;2023-12-20T06:38:33;4.60;99.90
19552;DHT22;9921;47.186;9.778;2023-12-20T06:41:01;4.50;99.90
19552;DHT22;9921;47.186;9.778;2023-12-20T06:43:28;4.50;99.90
19552;DHT22;9921;47.186;9.778;2023-12-20T06:45:55;4.50;99.90
19552;DHT22;9921;47.186;9.778;2023-12-20T06:48:22;4.50;99.90
19552;DHT22;9921;47.186;9.778;2023-12-20T06:50:49;4.50;99.90
19552;DHT22;9921;47.186;9.778;2023-12-20T06:53:16;4.50;99.90
19552;DHT22;9921;47.186;9.778;2023-12-20T06:55:43;4.50;99.90
19552;DHT22;9921;47.186;9.778;2023-12-20T06:58:11;4.50;99.90
19552;DHT22;9921;47.186;9.778;2023-12-20T07:00:38;4.40;99.90
19552;DHT22;9921;47.186;9.778;2023-12-20T07:03:04;4.40;99.90
19552;DHT22;9921;47.186;9.778;2023-12-20T07:05:31;4.40;99.90
19552;DHT22;9921;47.186;9.778;2023-12-20T07:07:58;4.40;99.90
19552;DHT22;9921;47.186;9.778;2023-12-20T07:10:25;4.40;99.90
19552;DHT22;9921;47.186;9.778;2023-12-20T07:12:52;4.30;99.90
19552;DHT22;9921;47.186;9.778;2023-12-20T07:15:22;4.20;99.90
19552;DHT22;9921;47.186;9.778;2023-12-20T07:17:48;4.20;99.90
19552;DHT22;9921;47.186;9.778;2023-12-20T07:20:15;4.10;99.90
19552;DHT22;9921;47.186;9.778;2023-12-20T07:22:42;4.00;99.90
19552;DHT22;9921;47.186;9.778;2023-12-20T07:25:09;4.00;99.90
19552;DHT22;9921;47.186;9.778;2023-12-20T07:27:36;4.10;99.90
19552;DHT22;9921;47.186;9.778;2023-12-20T07:30:03;4.10;99.90
19552;DHT22;9921;47.186;9.778;2023-12-20T07:32:32;4.10;99.90
19552;DHT22;9921;47.186;9.778;2023-12-20T07:34:59;4.10;99.90
19552;DHT22;9921;47.186;9.778;2023-12-20T07:37:26;4.10;99.90
19552;DHT22;9921;47.186;9.778;2023-12-20T07:39:52;4.10;99.90
19552;DHT22;9921;47.186;9.778;2023-12-20T07:42:19;4.00;99.90
19552;DHT22;9921;47.186;9.778;2023-12-20T07:44:47;4.00;99.90
19552;DHT22;9921;47.186;9.778;2023-12-20T07:47:14;4.00;99.90
19552;DHT22;9921;47.186;9.778;2023-12-20T07:49:46;4.10;99.90
19552;DHT22;9921;47.186;9.778;2023-12-20T07:52:13;4.10;99.90
19552;DHT22;9921;47.186;9.778;2023-12-20T07:54:40;4.10;99.90
19552;DHT22;9921;47.186;9.778;2023-12-20T07:57:08;4.20;99.90
19552;DHT22;9921;47.186;9.778;2023-12-20T07:59:36;4.20;99.90
19552;DHT22;9921;47.186;9.778;2023-12-20T08:02:03;4.20;99.90
19552;DHT22;9921;47.186;9.778;2023-12-20T08:04:30;4.20;99.90
19552;DHT22;9921;47.186;9.778;2023-12-20T08:06:58;4.30;99.90
19552;DHT22;9921;47.186;9.778;2023-12-20T08:09:26;4.40;99.90
19552;DHT22;9921;47.186;9.778;2023-12-20T08:11:52;4.40;99.90
19552;DHT22;9921;47.186;9.778;2023-12-20T08:14:19;4.50;99.90
19552;DHT22;9921;47.186;9.778;2023-12-20T08:16:46;4.50;99.90
19552;DHT22;9921;47.186;9.778;2023-12-20T08:19:13;4.50;99.90
19552;DHT22;9921;47.186;9.778;2023-12-20T08:21:40;4.60;99.90
19552;DHT22;9921;47.186;9.778;2023-12-20T08:24:11;4.70;99.90
19552;DHT22;9921;47.186;9.778;2023-12-20T08:26:38;4.60;99.90
19552;DHT22;9921;47.186;9.778;2023-12-20T08:29:04;4.60;99.90
19552;DHT22;9921;47.186;9.778;2023-12-20T08:31:31;4.60;99.90
19552;DHT22;9921;47.186;9.778;2023-12-20T08:33:58;4.60;99.90
19552;DHT22;9921;47.186;9.778;2023-12-20T08:36:25;4.60;99.90
19552;DHT22;9921;47.186;9.778;2023-12-20T08:38:52;4.60;99.90
19552;DHT22;9921;47.186;9.778;2023-12-20T08:41:21;4.70;99.90
19552;DHT22;9921;47.186;9.778;2023-12-20T08:43:48;4.70;99.90
19552;DHT22;9921;47.186;9.778;2023-12-20T08:46:16;4.70;99.90
19552;DHT22;9921;47.186;9.778;2023-12-20T08:48:43;4.70;99.90
19552;DHT22;9921;47.186;9.778;2023-12-20T08:51:10;4.80;99.90
19552;DHT22;9921;47.186;9.778;2023-12-20T08:53:37;4.80;99.90
19552;DHT22;9921;47.186;9.778;2023-12-20T08:56:04;4.90;99.90
19552;DHT22;9921;47.186;9.778;2023-12-20T08:58:33;4.90;99.90
19552;DHT22;9921;47.186;9.778;2023-12-20T09:01:01;4.90;99.90
19552;DHT22;9921;47.186;9.778;2023-12-20T09:03:28;4.90;99.90
19552;DHT22;9921;47.186;9.778;2023-12-20T09:05:55;4.80;99.90
19552;DHT22;9921;47.186;9.778;2023-12-20T09:08:22;4.80;99.90
19552;DHT22;9921;47.186;9.778;2023-12-20T09:10:49;4.80;99.90
19552;DHT22;9921;47.186;9.778;2023-12-20T09:13:16;4.80;99.90
19552;DHT22;9921;47.186;9.778;2023-12-20T09:15:44;4.80;99.90
19552;DHT22;9921;47.186;9.778;2023-12-20T09:18:11;4.70;99.90
19552;DHT22;9921;47.186;9.778;2023-12-20T09:20:38;4.70;99.90
19552;DHT22;9921;47.186;9.778;2023-12-20T09:23:05;4.80;99.90
19552;DHT22;9921;47.186;9.778;2023-12-20T09:25:31;4.80;99.90
19552;DHT22;9921;47.186;9.778;2023-12-20T09:27:58;4.90;99.90
19552;DHT22;9921;47.186;9.778;2023-12-20T09:30:25;5.00;99.90
19552;DHT22;9921;47.186;9.778;2023-12-20T09:32:53;5.00;99.90
19552;DHT22;9921;47.186;9.778;2023-12-20T09:35:20;5.10;99.90
19552;DHT22;9921;47.186;9.778;2023-12-20T09:37:47;5.20;99.90
19552;DHT22;9921;47.186;9.778;2023-12-20T09:40:18;5.40;99.90
19552;DHT22;9921;47.186;9.778;2023-12-20T09:42:48;5.50;99.90
19552;DHT22;9921;47.186;9.778;2023-12-20T09:45:20;5.50;99.90
19552;DHT22;9921;47.186;9.778;2023-12-20T09:47:49;5.50;99.90
19552;DHT22;9921;47.186;9.778;2023-12-20T09:50:18;5.60;99.90
19552;DHT22;9921;47.186;9.778;2023-12-20T09:52:47;5.60;99.90
19552;DHT22;9921;47.186;9.778;2023-12-20T09:55:17;5.70;99.90
19552;DHT22;9921;47.186;9.778;2023-12-20T09:57:44;5.70;99.90
19552;DHT22;9921;47.186;9.778;2023-12-20T10:00:12;5.60;99.90
19552;DHT22;9921;47.186;9.778;2023-12-20T10:02:45;5.60;99.90
19552;DHT22;9921;47.186;9.778;2023-12-20T10:05:17;5.60;99.90
19552;DHT22;9921;47.186;9.778;2023-12-20T10:07:45;5.50;99.90
19552;DHT22;9921;47.186;9.778;2023-12-20T10:10:13;5.40;99.90
19552;DHT22;9921;47.186;9.778;2023-12-20T10:12:40;5.50;99.90
19552;DHT22;9921;47.186;9.778;2023-12-20T10:15:07;5.50;99.90
19552;DHT22;9921;47.186;9.778;2023-12-20T10:17:35;5.50;99.90
19552;DHT22;9921;47.186;9.778;2023-12-20T10:20:03;5.60;99.90
19552;DHT22;9921;47.186;9.778;2023-12-20T10:22:37;5.60;99.90
19552;DHT22;9921;47.186;9.778;2023-12-20T10:25:05;5.70;99.90
19552;DHT22;9921;47.186;9.778;2023-12-20T10:27:32;5.70;99.90
19552;DHT22;9921;47.186;9.778;2023-12-20T10:29:59;5.70;99.90
19552;DHT22;9921;47.186;9.778;2023-12-20T10:32:27;5.70;99.90
19552;DHT22;9921;47.186;9.778;2023-12-20T10:34:55;5.70;99.90
19552;DHT22;9921;47.186;9.778;2023-12-20T10:37:22;5.80;99.90
19552;DHT22;9921;47.186;9.778;2023-12-20T10:39:52;5.80;99.90
19552;DHT22;9921;47.186;9.778;2023-12-20T10:42:22;5.80;99.90
19552;DHT22;9921;47.186;9.778;2023-12-20T10:44:49;5.80;99.90
19552;DHT22;9921;47.186;9.778;2023-12-20T10:47:17;5.80;99.90
19552;DHT22;9921;47.186;9.778;2023-12-20T10:49:46;5.90;99.90
19552;DHT22;9921;47.186;9.778;2023-12-20T10:52:13;5.90;99.90
19552;DHT22;9921;47.186;9.778;2023-12-20T10:54:40;6.00;99.90
19552;DHT22;9921;47.186;9.778;2023-12-20T10:57:08;6.00;99.90
19552;DHT22;9921;47.186;9.778;2023-12-20T10:59:37;6.00;99.90
19552;DHT22;9921;47.186;9.778;2023-12-20T11:02:05;6.10;99.90
19552;DHT22;9921;47.186;9.778;2023-12-20T11:04:38;6.10;99.90
19552;DHT22;9921;47.186;9.778;2023-12-20T11:07:16;6.10;99.90
19552;DHT22;9921;47.186;9.778;2023-12-20T11:09:49;6.20;99.90
19552;DHT22;9921;47.186;9.778;2023-12-20T11:12:27;6.30;99.90
19552;DHT22;9921;47.186;9.778;2023-12-20T11:14:57;6.60;99.90
19552;DHT22;9921;47.186;9.778;2023-12-20T11:17:29;6.70;99.90
19552;DHT22;9921;47.186;9.778;2023-12-20T11:20:06;6.80;99.90
19552;DHT22;9921;47.186;9.778;2023-12-20T11:22:34;6.90;99.90
19552;DHT22;9921;47.186;9.778;2023-12-20T11:25:04;7.00;99.90
19552;DHT22;9921;47.186;9.778;2023-12-20T11:27:33;7.20;99.90
19552;DHT22;9921;47.186;9.778;2023-12-20T11:30:02;7.30;99.90
19552;DHT22;9921;47.186;9.778;2023-12-20T11:32:33;7.40;99.90
19552;DHT22;9921;47.186;9.778;2023-12-20T11:35:16;7.50;99.90
19552;DHT22;9921;47.186;9.778;2023-12-20T11:37:43;7.50;99.90
19552;DHT22;9921;47.186;9.778;2023-12-20T11:40:12;7.60;99.90
19552;DHT22;9921;47.186;9.778;2023-12-20T11:42:43;7.70;99.90
19552;DHT22;9921;47.186;9.778;2023-12-20T11:45:12;7.70;99.90
19552;DHT22;9921;47.186;9.778;2023-12-20T11:47:41;7.80;99.90
19552;DHT22;9921;47.186;9.778;2023-12-20T11:50:09;7.90;99.90
19552;DHT22;9921;47.186;9.778;2023-12-20T11:52:36;7.90;99.90
19552;DHT22;9921;47.186;9.778;2023-12-20T11:55:03;7.80;99.90
19552;DHT22;9921;47.186;9.778;2023-12-20T11:57:30;7.70;99.90
19552;DHT22;9921;47.186;9.778;2023-12-20T11:59:58;7.70;99.90
19552;DHT22;9921;47.186;9.778;2023-12-20T12:02:25;7.80;99.90
19552;DHT22;9921;47.186;9.778;2023-12-20T12:04:52;7.90;99.90
19552;DHT22;9921;47.186;9.778;2023-12-20T12:07:19;7.90;99.90
19552;DHT22;9921;47.186;9.778;2023-12-20T12:09:47;8.00;99.90
19552;DHT22;9921;47.186;9.778;2023-12-20T12:12:14;8.00;99.90
19552;DHT22;9921;47.186;9.778;2023-12-20T12:14:41;8.10;99.90
19552;DHT22;9921;47.186;9.778;2023-12-20T12:17:13;8.10;99.90
19552;DHT22;9921;47.186;9.778;2023-12-20T12:19:40;8.10;99.90
19552;DHT22;9921;47.186;9.778;2023-12-20T12:22:08;8.20;99.90
19552;DHT22;9921;47.186;9.778;2023-12-20T12:24:38;8.20;99.90
19552;DHT22;9921;47.186;9.778;2023-12-20T12:27:06;8.10;99.90
19552;DHT22;9921;47.186;9.778;2023-12-20T12:29:33;8.10;99.90
19552;DHT22;9921;47.186;9.778;2023-12-20T12:32:00;8.10;99.90
19552;DHT22;9921;47.186;9.778;2023-12-20T12:34:29;8.10;99.90
19552;DHT22;9921;47.186;9.778;2023-12-20T12:36:56;8.10;99.90
19552;DHT22;9921;47.186;9.778;2023-12-20T12:39:24;8.10;99.90
19552;DHT22;9921;47.186;9.778;2023-12-20T12:41:51;8.10;99.90
19552;DHT22;9921;47.186;9.778;2023-12-20T12:44:18;8.10;99.90
19552;DHT22;9921;47.186;9.778;2023-12-20T12:46:46;8.10;99.90
19552;DHT22;9921;47.186;9.778;2023-12-20T12:49:15;8.00;99.90
19552;DHT22;9921;47.186;9.778;2023-12-20T12:51:43;8.00;99.90
19552;DHT22;9921;47.186;9.778;2023-12-20T12:54:10;7.90;99.90
19552;DHT22;9921;47.186;9.778;2023-12-20T12:56:38;7.90;99.90
19552;DHT22;9921;47.186;9.778;2023-12-20T12:59:06;7.80;99.90
19552;DHT22;9921;47.186;9.778;2023-12-20T13:01:32;7.80;99.90
19552;DHT22;9921;47.186;9.778;2023-12-20T13:03:59;7.70;99.90
19552;DHT22;9921;47.186;9.778;2023-12-20T13:06:28;7.80;99.90
19552;DHT22;9921;47.186;9.778;2023-12-20T13:08:59;7.80;99.90
19552;DHT22;9921;47.186;9.778;2023-12-20T13:11:26;7.80;99.90
19552;DHT22;9921;47.186;9.778;2023-12-20T13:13:53;7.80;99.90
19552;DHT22;9921;47.186;9.778;2023-12-20T13:16:20;7.80;99.90
19552;DHT22;9921;47.186;9.778;2023-12-20T13:18:47;7.80;99.90
19552;DHT22;9921;47.186;9.778;2023-12-20T13:21:14;7.80;99.90
19552;DHT22;9921;47.186;9.778;2023-12-20T13:23:41;7.70;99.90
19552;DHT22;9921;47.186;9.778;2023-12-20T13:26:09;7.80;99.90
19552;DHT22;9921;47.186;9.778;2023-12-20T13:28:36;7.80;99.90
19552;DHT22;9921;47.186;9.778;2023-12-20T13:31:03;7.80;99.90
19552;DHT22;9921;47.186;9.778;2023-12-20T13:33:30;7.80;99.90
19552;DHT22;9921;47.186;9.778;2023-12-20T13:35:57;7.70;99.90
19552;DHT22;9921;47.186;9.778;2023-12-20T13:38:25;7.70;99.90
19552;DHT22;9921;47.186;9.778;2023-12-20T13:40:52;7.70;99.90
19552;DHT22;9921;47.186;9.778;2023-12-20T13:43:20;7.70;99.90
19552;DHT22;9921;47.186;9.778;2023-12-20T13:45:47;7.70;99.90
19552;DHT22;9921;47.186;9.778;2023-12-20T13:48:14;7.60;99.90
19552;DHT22;9921;47.186;9.778;2023-12-20T13:50:41;7.70;99.90
19552;DHT22;9921;47.186;9.778;2023-12-20T13:53:08;7.70;99.90
19552;DHT22;9921;47.186;9.778;2023-12-20T13:55:34;7.70;99.90
19552;DHT22;9921;47.186;9.778;2023-12-20T13:58:01;7.80;99.90
19552;DHT22;9921;47.186;9.778;2023-12-20T14:00:29;7.80;99.90
19552;DHT22;9921;47.186;9.778;2023-12-20T14:02:56;7.80;99.90
19552;DHT22;9921;47.186;9.778;2023-12-20T14:05:24;7.70;99.90
19552;DHT22;9921;47.186;9.778;2023-12-20T14:07:52;7.70;99.90
19552;DHT22;9921;47.186;9.778;2023-12-20T14:10:21;7.50;99.90
19552;DHT22;9921;47.186;9.778;2023-12-20T14:12:48;7.50;99.90
19552;DHT22;9921;47.186;9.778;2023-12-20T14:15:15;7.50;99.90
19552;DHT22;9921;47.186;9.778;2023-12-20T14:17:43;7.40;99.90
19552;DHT22;9921;47.186;9.778;2023-12-20T14:20:10;7.40;99.90
19552;DHT22;9921;47.186;9.778;2023-12-20T14:22:39;7.30;99.90
19552;DHT22;9921;47.186;9.778;2023-12-20T14:25:10;7.30;99.90
19552;DHT22;9921;47.186;9.778;2023-12-20T14:27:38;7.20;99.90
19552;DHT22;9921;47.186;9.778;2023-12-20T14:30:05;7.20;99.90
19552;DHT22;9921;47.186;9.778;2023-12-20T14:32:35;7.20;99.90
19552;DHT22;9921;47.186;9.778;2023-12-20T14:35:05;7.20;99.90
19552;DHT22;9921;47.186;9.778;2023-12-20T14:37:33;7.20;99.90
19552;DHT22;9921;47.186;9.778;2023-12-20T14:40:00;7.20;99.90
19552;DHT22;9921;47.186;9.778;2023-12-20T14:42:27;7.20;99.90
19552;DHT22;9921;47.186;9.778;2023-12-20T14:44:54;7.10;99.90
19552;DHT22;9921;47.186;9.778;2023-12-20T14:47:21;7.10;99.90
19552;DHT22;9921;47.186;9.778;2023-12-20T14:49:50;7.10;99.90
19552;DHT22;9921;47.186;9.778;2023-12-20T14:52:19;7.10;99.90
19552;DHT22;9921;47.186;9.778;2023-12-20T14:54:45;7.10;99.90
19552;DHT22;9921;47.186;9.778;2023-12-20T14:57:12;7.00;99.90
19552;DHT22;9921;47.186;9.778;2023-12-20T14:59:39;6.90;99.90
19552;DHT22;9921;47.186;9.778;2023-12-20T15:02:06;6.90;99.90
19552;DHT22;9921;47.186;9.778;2023-12-20T15:04:33;6.80;99.90
19552;DHT22;9921;47.186;9.778;2023-12-20T15:07:00;6.80;99.90
19552;DHT22;9921;47.186;9.778;2023-12-20T15:09:29;6.80;99.90
19552;DHT22;9921;47.186;9.778;2023-12-20T15:11:56;6.70;99.90
19552;DHT22;9921;47.186;9.778;2023-12-20T15:14:23;6.70;99.90
19552;DHT22;9921;47.186;9.778;2023-12-20T15:16:50;6.70;99.90
19552;DHT22;9921;47.186;9.778;2023-12-20T15:19:17;6.70;99.90
19552;DHT22;9921;47.186;9.778;2023-12-20T15:21:44;6.70;99.90
19552;DHT22;9921;47.186;9.778;2023-12-20T15:24:11;6.70;99.90
19552;DHT22;9921;47.186;9.778;2023-12-20T15:26:42;6.60;99.90
19552;DHT22;9921;47.186;9.778;2023-12-20T15:29:10;6.60;99.90
19552;DHT22;9921;47.186;9.778;2023-12-20T15:31:42;6.50;99.90
19552;DHT22;9921;47.186;9.778;2023-12-20T15:34:09;6.50;99.90
19552;DHT22;9921;47.186;9.778;2023-12-20T15:36:36;6.40;99.90
19552;DHT22;9921;47.186;9.778;2023-12-20T15:39:03;6.40;99.90
19552;DHT22;9921;47.186;9.778;2023-12-20T15:41:30;6.30;99.90
19552;DHT22;9921;47.186;9.778;2023-12-20T15:43:59;6.30;99.90
19552;DHT22;9921;47.186;9.778;2023-12-20T15:46:26;6.30;99.90
19552;DHT22;9921;47.186;9.778;2023-12-20T15:48:53;6.30;99.90
19552;DHT22;9921;47.186;9.778;2023-12-20T15:51:21;6.30;99.90
19552;DHT22;9921;47.186;9.778;2023-12-20T15:53:48;6.20;99.90
19552;DHT22;9921;47.186;9.778;2023-12-20T15:56:15;6.20;99.90
19552;DHT22;9921;47.186;9.778;2023-12-20T15:58:42;6.20;99.90
19552;DHT22;9921;47.186;9.778;2023-12-20T16:01:11;6.10;99.90
19552;DHT22;9921;47.186;9.778;2023-12-20T16:03:37;6.10;99.90